sensor_id;sensor_type;location;lat;lon;timestamp;P1;durP1;ratioP1;P2;durP2;ratioP2
43835;SDS011;39345;43.964;25.340;2023-03-14T00:01:36;15.57;;;7.50;;
43835;SDS011;39345;43.964;25.340;2023-03-14T00:04:04;11.82;;;7.35;;
43835;SDS011;39345;43.964;25.340;2023-03-14T00:06:31;11.88;;;7.28;;
43835;SDS011;39345;43.964;25.340;2023-03-14T00:08:59;11.27;;;7.53;;
43835;SDS011;39345;43.964;25.340;2023-03-14T00:11:26;16.38;;;7.07;;
43835;SDS011;39345;43.964;25.340;2023-03-14T00:13:53;12.52;;;7.20;;
43835;SDS011;39345;43.964;25.340;2023-03-14T00:16:21;10.75;;;7.18;;
43835;SDS011;39345;43.964;25.340;2023-03-14T00:18:49;12.43;;;7.32;;
43835;SDS011;39345;43.964;25.340;2023-03-14T00:21:16;13.65;;;7.78;;
43835;SDS011;39345;43.964;25.340;2023-03-14T00:23:44;13.45;;;7.85;;
43835;SDS011;39345;43.964;25.340;2023-03-14T00:26:13;12.85;;;6.95;;
43835;SDS011;39345;43.964;25.340;2023-03-14T00:28:41;11.32;;;7.20;;
43835;SDS011;39345;43.964;25.340;2023-03-14T00:31:09;13.18;;;7.22;;
43835;SDS011;39345;43.964;25.340;2023-03-14T00:33:37;10.90;;;7.30;;
43835;SDS011;39345;43.964;25.340;2023-03-14T00:36:05;10.82;;;6.47;;
43835;SDS011;39345;43.964;25.340;2023-03-14T00:38:36;11.38;;;6.50;;
43835;SDS011;39345;43.964;25.340;2023-03-14T00:41:04;11.48;;;6.38;;
43835;SDS011;39345;43.964;25.340;2023-03-14T00:43:32;9.13;;;6.28;;
43835;SDS011;39345;43.964;25.340;2023-03-14T00:46:00;11.30;;;5.97;;
43835;SDS011;39345;43.964;25.340;2023-03-14T00:48:28;10.95;;;6.03;;
43835;SDS011;39345;43.964;25.340;2023-03-14T00:50:55;11.90;;;6.78;;
43835;SDS011;39345;43.964;25.340;2023-03-14T00:53:23;9.32;;;5.80;;
43835;SDS011;39345;43.964;25.340;2023-03-14T00:55:50;8.55;;;6.00;;
43835;SDS011;39345;43.964;25.340;2023-03-14T00:58:18;9.63;;;5.95;;
43835;SDS011;39345;43.964;25.340;2023-03-14T01:00:45;11.73;;;6.38;;
43835;SDS011;39345;43.964;25.340;2023-03-14T01:03:13;11.35;;;6.05;;
43835;SDS011;39345;43.964;25.340;2023-03-14T01:05:41;10.15;;;5.25;;
43835;SDS011;39345;43.964;25.340;2023-03-14T01:08:09;10.60;;;6.18;;
43835;SDS011;39345;43.964;25.340;2023-03-14T01:10:38;9.38;;;5.93;;
43835;SDS011;39345;43.964;25.340;2023-03-14T01:13:07;9.25;;;5.82;;
43835;SDS011;39345;43.964;25.340;2023-03-14T01:15:35;10.00;;;5.53;;
43835;SDS011;39345;43.964;25.340;2023-03-14T01:18:02;10.50;;;5.72;;
43835;SDS011;39345;43.964;25.340;2023-03-14T01:20:30;8.05;;;5.65;;
43835;SDS011;39345;43.964;25.340;2023-03-14T01:22:57;9.43;;;5.68;;
43835;SDS011;39345;43.964;25.340;2023-03-14T01:25:25;8.00;;;5.53;;
43835;SDS011;39345;43.964;25.340;2023-03-14T01:27:53;7.03;;;5.30;;
43835;SDS011;39345;43.964;25.340;2023-03-14T01:30:21;10.40;;;5.53;;
43835;SDS011;39345;43.964;25.340;2023-03-14T01:32:48;9.77;;;5.47;;
43835;SDS011;39345;43.964;25.340;2023-03-14T01:35:16;9.52;;;5.72;;
43835;SDS011;39345;43.964;25.340;2023-03-14T01:37:44;9.93;;;5.53;;
43835;SDS011;39345;43.964;25.340;2023-03-14T01:40:17;9.00;;;5.72;;
43835;SDS011;39345;43.964;25.340;2023-03-14T01:42:54;9.77;;;5.70;;
43835;SDS011;39345;43.964;25.340;2023-03-14T01:48:08;8.23;;;5.68;;
43835;SDS011;39345;43.964;25.340;2023-03-14T01:50:36;10.13;;;5.50;;
43835;SDS011;39345;43.964;25.340;2023-03-14T01:53:03;10.77;;;5.68;;
43835;SDS011;39345;43.964;25.340;2023-03-14T01:55:31;9.85;;;5.63;;
43835;SDS011;39345;43.964;25.340;2023-03-14T01:58:01;8.80;;;5.47;;
43835;SDS011;39345;43.964;25.340;2023-03-14T02:00:30;10.30;;;5.10;;
43835;SDS011;39345;43.964;25.340;2023-03-14T02:03:02;8.65;;;4.82;;
43835;SDS011;39345;43.964;25.340;2023-03-14T02:05:34;8.15;;;4.82;;
43835;SDS011;39345;43.964;25.340;2023-03-14T02:08:14;8.82;;;5.03;;
43835;SDS011;39345;43.964;25.340;2023-03-14T02:10:47;7.90;;;4.85;;
43835;SDS011;39345;43.964;25.340;2023-03-14T02:13:19;7.18;;;5.07;;
43835;SDS011;39345;43.964;25.340;2023-03-14T02:16:11;7.80;;;5.28;;
43835;SDS011;39345;43.964;25.340;2023-03-14T02:18:53;7.68;;;4.78;;
43835;SDS011;39345;43.964;25.340;2023-03-14T02:27:14;8.43;;;4.70;;
43835;SDS011;39345;43.964;25.340;2023-03-14T02:32:17;9.05;;;4.93;;
43835;SDS011;39345;43.964;25.340;2023-03-14T02:34:46;10.90;;;5.35;;
43835;SDS011;39345;43.964;25.340;2023-03-14T02:37:15;8.38;;;5.30;;
43835;SDS011;39345;43.964;25.340;2023-03-14T02:39:44;7.97;;;5.25;;
43835;SDS011;39345;43.964;25.340;2023-03-14T02:42:13;7.68;;;4.95;;
43835;SDS011;39345;43.964;25.340;2023-03-14T02:44:55;11.18;;;5.35;;
43835;SDS011;39345;43.964;25.340;2023-03-14T02:47:29;8.55;;;4.90;;
43835;SDS011;39345;43.964;25.340;2023-03-14T02:49:59;8.43;;;4.85;;
43835;SDS011;39345;43.964;25.340;2023-03-14T02:52:29;8.30;;;4.90;;
43835;SDS011;39345;43.964;25.340;2023-03-14T02:54:56;8.95;;;4.93;;
43835;SDS011;39345;43.964;25.340;2023-03-14T02:57:24;8.57;;;4.78;;
43835;SDS011;39345;43.964;25.340;2023-03-14T02:59:52;11.50;;;5.05;;
43835;SDS011;39345;43.964;25.340;2023-03-14T03:02:19;8.38;;;4.70;;
43835;SDS011;39345;43.964;25.340;2023-03-14T03:04:47;7.22;;;4.63;;
43835;SDS011;39345;43.964;25.340;2023-03-14T03:07:16;7.60;;;4.63;;
43835;SDS011;39345;43.964;25.340;2023-03-14T03:09:44;7.35;;;4.70;;
43835;SDS011;39345;43.964;25.340;2023-03-14T03:12:12;10.25;;;5.03;;
43835;SDS011;39345;43.964;25.340;2023-03-14T03:14:39;8.57;;;5.50;;
43835;SDS011;39345;43.964;25.340;2023-03-14T03:17:08;8.18;;;5.45;;
43835;SDS011;39345;43.964;25.340;2023-03-14T03:19:37;8.90;;;5.43;;
43835;SDS011;39345;43.964;25.340;2023-03-14T03:22:04;9.27;;;5.75;;
43835;SDS011;39345;43.964;25.340;2023-03-14T03:24:32;10.52;;;5.22;;
43835;SDS011;39345;43.964;25.340;2023-03-14T03:27:01;9.63;;;5.72;;
43835;SDS011;39345;43.964;25.340;2023-03-14T03:29:29;8.48;;;5.55;;
43835;SDS011;39345;43.964;25.340;2023-03-14T03:31:57;10.65;;;5.50;;
43835;SDS011;39345;43.964;25.340;2023-03-14T03:34:24;8.88;;;5.53;;
43835;SDS011;39345;43.964;25.340;2023-03-14T03:36:55;9.18;;;5.13;;
43835;SDS011;39345;43.964;25.340;2023-03-14T03:39:25;9.23;;;5.55;;
43835;SDS011;39345;43.964;25.340;2023-03-14T03:41:52;8.95;;;5.22;;
43835;SDS011;39345;43.964;25.340;2023-03-14T03:44:20;6.60;;;4.45;;
43835;SDS011;39345;43.964;25.340;2023-03-14T03:46:47;8.13;;;4.68;;
43835;SDS011;39345;43.964;25.340;2023-03-14T03:49:16;9.13;;;4.63;;
43835;SDS011;39345;43.964;25.340;2023-03-14T03:51:44;14.23;;;5.80;;
43835;SDS011;39345;43.964;25.340;2023-03-14T03:54:12;7.55;;;4.72;;
43835;SDS011;39345;43.964;25.340;2023-03-14T03:56:39;9.07;;;4.80;;
43835;SDS011;39345;43.964;25.340;2023-03-14T03:59:07;8.27;;;4.82;;
43835;SDS011;39345;43.964;25.340;2023-03-14T04:01:34;6.90;;;4.70;;
43835;SDS011;39345;43.964;25.340;2023-03-14T04:04:02;8.10;;;5.10;;
43835;SDS011;39345;43.964;25.340;2023-03-14T04:06:30;8.13;;;4.45;;
43835;SDS011;39345;43.964;25.340;2023-03-14T04:08:59;8.07;;;4.65;;
43835;SDS011;39345;43.964;25.340;2023-03-14T04:11:37;7.25;;;4.55;;
43835;SDS011;39345;43.964;25.340;2023-03-14T04:14:19;8.95;;;5.28;;
43835;SDS011;39345;43.964;25.340;2023-03-14T04:16:54;8.63;;;5.05;;
43835;SDS011;39345;43.964;25.340;2023-03-14T04:19:22;10.23;;;5.25;;
43835;SDS011;39345;43.964;25.340;2023-03-14T04:21:52;9.15;;;5.35;;
43835;SDS011;39345;43.964;25.340;2023-03-14T04:24:21;8.27;;;5.05;;
43835;SDS011;39345;43.964;25.340;2023-03-14T04:26:49;7.63;;;4.93;;
43835;SDS011;39345;43.964;25.340;2023-03-14T04:29:17;8.45;;;5.57;;
43835;SDS011;39345;43.964;25.340;2023-03-14T04:31:45;15.98;;;9.13;;
43835;SDS011;39345;43.964;25.340;2023-03-14T04:34:13;23.98;;;16.55;;
43835;SDS011;39345;43.964;25.340;2023-03-14T04:36:49;15.77;;;10.77;;
43835;SDS011;39345;43.964;25.340;2023-03-14T04:39:21;45.20;;;24.35;;
43835;SDS011;39345;43.964;25.340;2023-03-14T04:41:55;15.95;;;9.75;;
43835;SDS011;39345;43.964;25.340;2023-03-14T04:44:24;17.30;;;10.63;;
43835;SDS011;39345;43.964;25.340;2023-03-14T04:46:52;13.80;;;8.15;;
43835;SDS011;39345;43.964;25.340;2023-03-14T04:49:20;77.88;;;39.28;;
43835;SDS011;39345;43.964;25.340;2023-03-14T04:51:48;21.10;;;11.82;;
43835;SDS011;39345;43.964;25.340;2023-03-14T04:54:22;10.93;;;6.70;;
43835;SDS011;39345;43.964;25.340;2023-03-14T04:56:54;14.70;;;8.10;;
43835;SDS011;39345;43.964;25.340;2023-03-14T04:59:22;12.00;;;7.68;;
43835;SDS011;39345;43.964;25.340;2023-03-14T05:01:52;8.23;;;5.65;;
43835;SDS011;39345;43.964;25.340;2023-03-14T05:04:39;14.05;;;5.95;;
43835;SDS011;39345;43.964;25.340;2023-03-14T05:07:18;15.45;;;7.35;;
43835;SDS011;39345;43.964;25.340;2023-03-14T05:09:59;12.23;;;6.72;;
43835;SDS011;39345;43.964;25.340;2023-03-14T05:12:42;15.15;;;8.07;;
43835;SDS011;39345;43.964;25.340;2023-03-14T05:15:34;20.80;;;10.32;;
43835;SDS011;39345;43.964;25.340;2023-03-14T05:18:20;23.85;;;11.73;;
43835;SDS011;39345;43.964;25.340;2023-03-14T05:21:16;24.33;;;12.48;;
43835;SDS011;39345;43.964;25.340;2023-03-14T05:24:13;25.30;;;11.45;;
43835;SDS011;39345;43.964;25.340;2023-03-14T05:27:01;18.95;;;9.88;;
43835;SDS011;39345;43.964;25.340;2023-03-14T05:29:49;21.67;;;11.68;;
43835;SDS011;39345;43.964;25.340;2023-03-14T05:32:35;18.20;;;9.90;;
43835;SDS011;39345;43.964;25.340;2023-03-14T05:35:17;13.05;;;8.38;;
43835;SDS011;39345;43.964;25.340;2023-03-14T05:38:05;13.23;;;7.18;;
43835;SDS011;39345;43.964;25.340;2023-03-14T05:41:05;9.93;;;6.88;;
43835;SDS011;39345;43.964;25.340;2023-03-14T05:44:11;12.10;;;7.45;;
43835;SDS011;39345;43.964;25.340;2023-03-14T05:46:59;11.95;;;6.90;;
43835;SDS011;39345;43.964;25.340;2023-03-14T05:49:49;8.57;;;5.70;;
43835;SDS011;39345;43.964;25.340;2023-03-14T05:52:32;10.60;;;5.82;;
43835;SDS011;39345;43.964;25.340;2023-03-14T05:55:22;7.72;;;5.57;;
43835;SDS011;39345;43.964;25.340;2023-03-14T05:58:13;8.85;;;5.28;;
43835;SDS011;39345;43.964;25.340;2023-03-14T06:01:03;12.90;;;6.75;;
43835;SDS011;39345;43.964;25.340;2023-03-14T06:03:43;8.95;;;5.85;;
43835;SDS011;39345;43.964;25.340;2023-03-14T06:06:11;12.48;;;7.78;;
43835;SDS011;39345;43.964;25.340;2023-03-14T06:08:38;26.25;;;15.55;;
43835;SDS011;39345;43.964;25.340;2023-03-14T06:11:08;26.52;;;17.77;;
43835;SDS011;39345;43.964;25.340;2023-03-14T06:13:36;22.40;;;13.20;;
43835;SDS011;39345;43.964;25.340;2023-03-14T06:16:04;19.08;;;11.13;;
43835;SDS011;39345;43.964;25.340;2023-03-14T06:18:31;19.52;;;10.68;;
43835;SDS011;39345;43.964;25.340;2023-03-14T06:20:59;17.30;;;9.95;;
43835;SDS011;39345;43.964;25.340;2023-03-14T06:23:27;18.20;;;10.32;;
43835;SDS011;39345;43.964;25.340;2023-03-14T06:25:58;13.77;;;8.40;;
43835;SDS011;39345;43.964;25.340;2023-03-14T06:28:25;13.10;;;8.05;;
43835;SDS011;39345;43.964;25.340;2023-03-14T06:30:58;9.05;;;6.05;;
43835;SDS011;39345;43.964;25.340;2023-03-14T06:33:31;7.22;;;4.57;;
43835;SDS011;39345;43.964;25.340;2023-03-14T06:35:59;4.82;;;4.32;;
43835;SDS011;39345;43.964;25.340;2023-03-14T06:38:27;6.15;;;4.60;;
43835;SDS011;39345;43.964;25.340;2023-03-14T06:40:56;6.80;;;4.10;;
43835;SDS011;39345;43.964;25.340;2023-03-14T06:43:35;5.88;;;4.28;;
43835;SDS011;39345;43.964;25.340;2023-03-14T06:46:04;5.70;;;4.00;;
43835;SDS011;39345;43.964;25.340;2023-03-14T06:48:33;6.15;;;4.00;;
43835;SDS011;39345;43.964;25.340;2023-03-14T06:51:01;7.20;;;4.57;;
43835;SDS011;39345;43.964;25.340;2023-03-14T06:53:29;5.28;;;4.00;;
43835;SDS011;39345;43.964;25.340;2023-03-14T06:55:59;6.00;;;4.90;;
43835;SDS011;39345;43.964;25.340;2023-03-14T06:58:28;7.13;;;4.82;;
43835;SDS011;39345;43.964;25.340;2023-03-14T07:00:56;8.52;;;5.72;;
43835;SDS011;39345;43.964;25.340;2023-03-14T07:05:59;8.60;;;7.00;;
43835;SDS011;39345;43.964;25.340;2023-03-14T07:08:26;10.32;;;7.35;;
43835;SDS011;39345;43.964;25.340;2023-03-14T07:10:55;9.60;;;6.45;;
43835;SDS011;39345;43.964;25.340;2023-03-14T07:13:23;10.13;;;7.60;;
43835;SDS011;39345;43.964;25.340;2023-03-14T07:15:57;10.73;;;7.63;;
43835;SDS011;39345;43.964;25.340;2023-03-14T07:18:24;7.10;;;5.55;;
43835;SDS011;39345;43.964;25.340;2023-03-14T07:20:52;7.47;;;4.97;;
43835;SDS011;39345;43.964;25.340;2023-03-14T07:23:19;7.95;;;5.53;;
43835;SDS011;39345;43.964;25.340;2023-03-14T07:25:50;6.85;;;4.57;;
43835;SDS011;39345;43.964;25.340;2023-03-14T07:28:22;6.70;;;4.13;;
43835;SDS011;39345;43.964;25.340;2023-03-14T07:30:56;5.68;;;4.00;;
43835;SDS011;39345;43.964;25.340;2023-03-14T07:33:29;6.57;;;4.97;;
43835;SDS011;39345;43.964;25.340;2023-03-14T07:35:56;8.15;;;5.30;;
43835;SDS011;39345;43.964;25.340;2023-03-14T07:38:24;7.05;;;4.38;;
43835;SDS011;39345;43.964;25.340;2023-03-14T07:41:14;7.63;;;3.90;;
43835;SDS011;39345;43.964;25.340;2023-03-14T07:44:02;6.15;;;4.20;;
43835;SDS011;39345;43.964;25.340;2023-03-14T07:46:29;10.77;;;4.65;;
43835;SDS011;39345;43.964;25.340;2023-03-14T07:48:57;7.45;;;4.60;;
43835;SDS011;39345;43.964;25.340;2023-03-14T07:51:24;8.27;;;4.28;;
43835;SDS011;39345;43.964;25.340;2023-03-14T07:53:52;7.55;;;5.03;;
43835;SDS011;39345;43.964;25.340;2023-03-14T07:56:19;9.75;;;4.88;;
43835;SDS011;39345;43.964;25.340;2023-03-14T07:58:47;10.70;;;4.85;;
43835;SDS011;39345;43.964;25.340;2023-03-14T08:01:14;10.25;;;4.88;;
43835;SDS011;39345;43.964;25.340;2023-03-14T08:03:42;8.45;;;4.75;;
43835;SDS011;39345;43.964;25.340;2023-03-14T08:06:09;8.43;;;4.38;;
43835;SDS011;39345;43.964;25.340;2023-03-14T08:08:37;4.60;;;3.70;;
43835;SDS011;39345;43.964;25.340;2023-03-14T08:11:05;5.40;;;3.90;;
43835;SDS011;39345;43.964;25.340;2023-03-14T08:13:35;5.97;;;4.07;;
43835;SDS011;39345;43.964;25.340;2023-03-14T08:16:03;7.53;;;4.90;;
43835;SDS011;39345;43.964;25.340;2023-03-14T08:18:31;8.98;;;4.28;;
43835;SDS011;39345;43.964;25.340;2023-03-14T08:20:59;8.02;;;4.28;;
43835;SDS011;39345;43.964;25.340;2023-03-14T08:23:26;8.05;;;4.10;;
43835;SDS011;39345;43.964;25.340;2023-03-14T08:25:54;6.75;;;3.90;;
43835;SDS011;39345;43.964;25.340;2023-03-14T08:28:21;6.57;;;3.90;;
43835;SDS011;39345;43.964;25.340;2023-03-14T08:30:49;5.22;;;3.45;;
43835;SDS011;39345;43.964;25.340;2023-03-14T08:33:17;6.18;;;3.88;;
43835;SDS011;39345;43.964;25.340;2023-03-14T08:35:44;5.72;;;3.88;;
43835;SDS011;39345;43.964;25.340;2023-03-14T08:38:11;6.15;;;4.20;;
43835;SDS011;39345;43.964;25.340;2023-03-14T08:40:39;8.93;;;4.00;;
43835;SDS011;39345;43.964;25.340;2023-03-14T08:43:06;7.63;;;4.20;;
43835;SDS011;39345;43.964;25.340;2023-03-14T08:45:34;5.97;;;3.55;;
43835;SDS011;39345;43.964;25.340;2023-03-14T08:48:01;6.15;;;3.95;;
43835;SDS011;39345;43.964;25.340;2023-03-14T08:50:29;8.10;;;4.72;;
43835;SDS011;39345;43.964;25.340;2023-03-14T08:52:56;5.28;;;3.75;;
43835;SDS011;39345;43.964;25.340;2023-03-14T08:55:26;6.60;;;3.38;;
43835;SDS011;39345;43.964;25.340;2023-03-14T08:57:53;6.32;;;4.03;;
43835;SDS011;39345;43.964;25.340;2023-03-14T09:00:21;6.10;;;4.07;;
43835;SDS011;39345;43.964;25.340;2023-03-14T09:02:49;6.80;;;3.85;;
43835;SDS011;39345;43.964;25.340;2023-03-14T09:05:17;7.05;;;3.92;;
43835;SDS011;39345;43.964;25.340;2023-03-14T09:07:44;5.28;;;3.65;;
43835;SDS011;39345;43.964;25.340;2023-03-14T09:10:12;7.57;;;4.03;;
43835;SDS011;39345;43.964;25.340;2023-03-14T09:12:40;5.72;;;4.03;;
43835;SDS011;39345;43.964;25.340;2023-03-14T09:15:07;6.65;;;4.10;;
43835;SDS011;39345;43.964;25.340;2023-03-14T09:17:35;6.20;;;4.07;;
43835;SDS011;39345;43.964;25.340;2023-03-14T09:20:03;7.40;;;4.28;;
43835;SDS011;39345;43.964;25.340;2023-03-14T09:22:35;6.20;;;4.03;;
43835;SDS011;39345;43.964;25.340;2023-03-14T09:25:03;6.03;;;4.20;;
43835;SDS011;39345;43.964;25.340;2023-03-14T09:27:30;7.03;;;4.30;;
43835;SDS011;39345;43.964;25.340;2023-03-14T09:29:58;8.75;;;4.20;;
43835;SDS011;39345;43.964;25.340;2023-03-14T09:32:25;7.65;;;4.25;;
43835;SDS011;39345;43.964;25.340;2023-03-14T09:34:53;6.68;;;4.38;;
43835;SDS011;39345;43.964;25.340;2023-03-14T09:37:20;8.95;;;4.88;;
43835;SDS011;39345;43.964;25.340;2023-03-14T09:39:48;7.18;;;4.70;;
43835;SDS011;39345;43.964;25.340;2023-03-14T09:42:20;7.65;;;4.65;;
43835;SDS011;39345;43.964;25.340;2023-03-14T09:45:02;5.68;;;3.95;;
43835;SDS011;39345;43.964;25.340;2023-03-14T09:47:32;6.55;;;3.90;;
43835;SDS011;39345;43.964;25.340;2023-03-14T09:50:03;7.60;;;4.55;;
43835;SDS011;39345;43.964;25.340;2023-03-14T09:52:35;6.38;;;4.47;;
43835;SDS011;39345;43.964;25.340;2023-03-14T09:55:22;10.05;;;7.28;;
43835;SDS011;39345;43.964;25.340;2023-03-14T09:57:50;6.55;;;4.57;;
43835;SDS011;39345;43.964;25.340;2023-03-14T10:00:23;7.50;;;4.97;;
43835;SDS011;39345;43.964;25.340;2023-03-14T10:05:20;5.25;;;3.45;;
43835;SDS011;39345;43.964;25.340;2023-03-14T10:07:48;5.15;;;3.50;;
43835;SDS011;39345;43.964;25.340;2023-03-14T10:10:20;5.97;;;4.10;;
43835;SDS011;39345;43.964;25.340;2023-03-14T10:12:53;6.10;;;3.95;;
43835;SDS011;39345;43.964;25.340;2023-03-14T10:15:32;7.55;;;4.85;;
43835;SDS011;39345;43.964;25.340;2023-03-14T10:18:01;9.32;;;4.75;;
43835;SDS011;39345;43.964;25.340;2023-03-14T10:23:24;6.75;;;4.20;;
43835;SDS011;39345;43.964;25.340;2023-03-14T10:25:58;4.43;;;3.20;;
43835;SDS011;39345;43.964;25.340;2023-03-14T10:28:31;7.07;;;4.10;;
43835;SDS011;39345;43.964;25.340;2023-03-14T10:31:00;4.43;;;3.58;;
43835;SDS011;39345;43.964;25.340;2023-03-14T10:33:28;9.10;;;6.43;;
43835;SDS011;39345;43.964;25.340;2023-03-14T10:36:03;6.15;;;3.40;;
43835;SDS011;39345;43.964;25.340;2023-03-14T10:38:36;6.70;;;4.18;;
43835;SDS011;39345;43.964;25.340;2023-03-14T10:41:14;6.20;;;3.35;;
43835;SDS011;39345;43.964;25.340;2023-03-14T10:43:42;6.93;;;4.75;;
43835;SDS011;39345;43.964;25.340;2023-03-14T10:46:16;8.68;;;3.60;;
43835;SDS011;39345;43.964;25.340;2023-03-14T10:49:04;7.05;;;4.47;;
43835;SDS011;39345;43.964;25.340;2023-03-14T10:51:32;5.95;;;3.13;;
43835;SDS011;39345;43.964;25.340;2023-03-14T10:56:33;6.50;;;3.67;;
43835;SDS011;39345;43.964;25.340;2023-03-14T10:59:01;5.82;;;3.65;;
43835;SDS011;39345;43.964;25.340;2023-03-14T11:04:01;4.93;;;3.40;;
43835;SDS011;39345;43.964;25.340;2023-03-14T11:06:44;6.38;;;3.65;;
43835;SDS011;39345;43.964;25.340;2023-03-14T11:09:18;7.28;;;4.38;;
43835;SDS011;39345;43.964;25.340;2023-03-14T11:11:48;8.52;;;5.20;;
43835;SDS011;39345;43.964;25.340;2023-03-14T11:17:03;11.18;;;4.65;;
43835;SDS011;39345;43.964;25.340;2023-03-14T11:22:28;7.20;;;4.57;;
43835;SDS011;39345;43.964;25.340;2023-03-14T11:27:34;7.10;;;3.38;;
43835;SDS011;39345;43.964;25.340;2023-03-14T11:35:13;4.57;;;2.70;;
43835;SDS011;39345;43.964;25.340;2023-03-14T11:37:46;4.32;;;2.80;;
43835;SDS011;39345;43.964;25.340;2023-03-14T11:40:17;4.07;;;2.60;;
43835;SDS011;39345;43.964;25.340;2023-03-14T11:42:47;3.88;;;2.53;;
43835;SDS011;39345;43.964;25.340;2023-03-14T11:45:18;4.22;;;2.20;;
43835;SDS011;39345;43.964;25.340;2023-03-14T11:47:49;13.05;;;9.20;;
43835;SDS011;39345;43.964;25.340;2023-03-14T11:52:48;2.88;;;2.40;;
43835;SDS011;39345;43.964;25.340;2023-03-14T11:55:21;3.88;;;2.58;;
43835;SDS011;39345;43.964;25.340;2023-03-14T11:57:53;4.30;;;2.72;;
43835;SDS011;39345;43.964;25.340;2023-03-14T12:00:23;3.72;;;2.67;;
43835;SDS011;39345;43.964;25.340;2023-03-14T12:10:39;9.65;;;7.22;;
43835;SDS011;39345;43.964;25.340;2023-03-14T12:13:08;8.13;;;6.22;;
43835;SDS011;39345;43.964;25.340;2023-03-14T12:15:40;6.43;;;4.60;;
43835;SDS011;39345;43.964;25.340;2023-03-14T12:18:20;7.72;;;4.53;;
43835;SDS011;39345;43.964;25.340;2023-03-14T12:20:56;3.92;;;2.50;;
43835;SDS011;39345;43.964;25.340;2023-03-14T12:23:25;5.35;;;2.83;;
43835;SDS011;39345;43.964;25.340;2023-03-14T12:28:41;6.32;;;2.90;;
43835;SDS011;39345;43.964;25.340;2023-03-14T12:34:03;4.05;;;2.78;;
43835;SDS011;39345;43.964;25.340;2023-03-14T12:36:48;4.35;;;2.72;;
43835;SDS011;39345;43.964;25.340;2023-03-14T12:41:51;3.55;;;2.40;;
43835;SDS011;39345;43.964;25.340;2023-03-14T12:46:59;5.72;;;3.30;;
43835;SDS011;39345;43.964;25.340;2023-03-14T12:49:31;5.18;;;2.53;;
43835;SDS011;39345;43.964;25.340;2023-03-14T12:51:59;6.63;;;2.35;;
43835;SDS011;39345;43.964;25.340;2023-03-14T12:59:58;4.50;;;2.80;;
43835;SDS011;39345;43.964;25.340;2023-03-14T13:02:45;4.22;;;3.00;;
43835;SDS011;39345;43.964;25.340;2023-03-14T13:10:19;4.25;;;2.30;;
43835;SDS011;39345;43.964;25.340;2023-03-14T13:12:49;4.63;;;2.58;;
43835;SDS011;39345;43.964;25.340;2023-03-14T13:15:22;6.47;;;2.30;;
43835;SDS011;39345;43.964;25.340;2023-03-14T13:17:51;6.97;;;3.00;;
43835;SDS011;39345;43.964;25.340;2023-03-14T13:21:02;5.38;;;2.65;;
43835;SDS011;39345;43.964;25.340;2023-03-14T13:26:11;5.07;;;2.97;;
43835;SDS011;39345;43.964;25.340;2023-03-14T13:28:40;5.03;;;3.28;;
43835;SDS011;39345;43.964;25.340;2023-03-14T13:31:20;3.60;;;2.67;;
43835;SDS011;39345;43.964;25.340;2023-03-14T13:33:58;2.10;;;1.90;;
43835;SDS011;39345;43.964;25.340;2023-03-14T13:36:26;3.30;;;1.80;;
43835;SDS011;39345;43.964;25.340;2023-03-14T13:38:57;3.55;;;2.22;;
43835;SDS011;39345;43.964;25.340;2023-03-14T13:41:25;3.25;;;1.90;;
43835;SDS011;39345;43.964;25.340;2023-03-14T13:43:56;3.78;;;2.00;;
43835;SDS011;39345;43.964;25.340;2023-03-14T13:46:25;3.25;;;1.80;;
43835;SDS011;39345;43.964;25.340;2023-03-14T13:48:56;5.03;;;2.38;;
43835;SDS011;39345;43.964;25.340;2023-03-14T13:51:24;6.05;;;3.08;;
43835;SDS011;39345;43.964;25.340;2023-03-14T13:53:55;6.13;;;4.00;;
43835;SDS011;39345;43.964;25.340;2023-03-14T13:56:25;4.55;;;2.97;;
43835;SDS011;39345;43.964;25.340;2023-03-14T13:58:54;6.13;;;3.00;;
43835;SDS011;39345;43.964;25.340;2023-03-14T14:01:31;5.18;;;3.72;;
43835;SDS011;39345;43.964;25.340;2023-03-14T14:04:14;5.85;;;3.08;;
43835;SDS011;39345;43.964;25.340;2023-03-14T14:06:49;5.53;;;3.70;;
43835;SDS011;39345;43.964;25.340;2023-03-14T14:09:22;10.15;;;6.38;;
43835;SDS011;39345;43.964;25.340;2023-03-14T14:14:39;5.72;;;4.13;;
43835;SDS011;39345;43.964;25.340;2023-03-14T14:17:17;7.90;;;6.03;;
43835;SDS011;39345;43.964;25.340;2023-03-14T14:19:46;14.95;;;11.55;;
43835;SDS011;39345;43.964;25.340;2023-03-14T14:22:13;8.18;;;4.30;;
43835;SDS011;39345;43.964;25.340;2023-03-14T14:24:41;6.22;;;2.60;;
43835;SDS011;39345;43.964;25.340;2023-03-14T14:27:13;4.85;;;2.40;;
43835;SDS011;39345;43.964;25.340;2023-03-14T14:29:41;4.07;;;2.13;;
43835;SDS011;39345;43.964;25.340;2023-03-14T14:34:46;4.50;;;2.40;;
43835;SDS011;39345;43.964;25.340;2023-03-14T14:39:47;5.75;;;3.60;;
43835;SDS011;39345;43.964;25.340;2023-03-14T14:42:16;6.32;;;3.10;;
43835;SDS011;39345;43.964;25.340;2023-03-14T14:44:43;6.18;;;3.95;;
43835;SDS011;39345;43.964;25.340;2023-03-14T14:47:12;6.57;;;3.40;;
43835;SDS011;39345;43.964;25.340;2023-03-14T14:49:40;6.57;;;5.25;;
43835;SDS011;39345;43.964;25.340;2023-03-14T14:54:52;9.60;;;4.93;;
43835;SDS011;39345;43.964;25.340;2023-03-14T14:57:27;7.03;;;3.75;;
43835;SDS011;39345;43.964;25.340;2023-03-14T15:00:00;6.05;;;3.50;;
43835;SDS011;39345;43.964;25.340;2023-03-14T15:02:37;10.00;;;5.35;;
43835;SDS011;39345;43.964;25.340;2023-03-14T15:05:13;9.57;;;5.55;;
43835;SDS011;39345;43.964;25.340;2023-03-14T15:07:41;10.50;;;5.00;;
43835;SDS011;39345;43.964;25.340;2023-03-14T15:10:16;8.75;;;3.30;;
43835;SDS011;39345;43.964;25.340;2023-03-14T15:15:13;7.05;;;3.30;;
43835;SDS011;39345;43.964;25.340;2023-03-14T15:17:41;4.57;;;2.58;;
43835;SDS011;39345;43.964;25.340;2023-03-14T15:20:10;6.97;;;2.90;;
43835;SDS011;39345;43.964;25.340;2023-03-14T15:22:39;9.43;;;3.53;;
43835;SDS011;39345;43.964;25.340;2023-03-14T15:25:07;10.57;;;5.45;;
43835;SDS011;39345;43.964;25.340;2023-03-14T15:27:47;10.68;;;5.68;;
43835;SDS011;39345;43.964;25.340;2023-03-14T15:30:15;10.65;;;5.82;;
43835;SDS011;39345;43.964;25.340;2023-03-14T15:32:42;10.20;;;4.38;;
43835;SDS011;39345;43.964;25.340;2023-03-14T15:35:11;7.18;;;3.92;;
43835;SDS011;39345;43.964;25.340;2023-03-14T15:37:43;5.90;;;4.03;;
43835;SDS011;39345;43.964;25.340;2023-03-14T15:40:11;7.25;;;3.85;;
43835;SDS011;39345;43.964;25.340;2023-03-14T15:42:40;8.30;;;4.97;;
43835;SDS011;39345;43.964;25.340;2023-03-14T15:45:08;14.13;;;7.03;;
43835;SDS011;39345;43.964;25.340;2023-03-14T15:47:36;24.58;;;12.68;;
43835;SDS011;39345;43.964;25.340;2023-03-14T15:50:03;29.88;;;13.43;;
43835;SDS011;39345;43.964;25.340;2023-03-14T15:52:31;30.33;;;14.13;;
43835;SDS011;39345;43.964;25.340;2023-03-14T15:54:59;28.95;;;15.30;;
43835;SDS011;39345;43.964;25.340;2023-03-14T15:57:26;22.25;;;10.38;;
43835;SDS011;39345;43.964;25.340;2023-03-14T15:59:54;11.32;;;6.43;;
43835;SDS011;39345;43.964;25.340;2023-03-14T16:02:22;9.77;;;4.85;;
43835;SDS011;39345;43.964;25.340;2023-03-14T16:04:49;10.13;;;4.70;;
43835;SDS011;39345;43.964;25.340;2023-03-14T16:07:17;10.55;;;5.38;;
43835;SDS011;39345;43.964;25.340;2023-03-14T16:09:44;10.30;;;5.53;;
43835;SDS011;39345;43.964;25.340;2023-03-14T16:12:12;12.25;;;6.15;;
43835;SDS011;39345;43.964;25.340;2023-03-14T16:14:39;14.38;;;6.20;;
43835;SDS011;39345;43.964;25.340;2023-03-14T16:17:09;10.13;;;5.60;;
43835;SDS011;39345;43.964;25.340;2023-03-14T16:19:39;11.38;;;6.10;;